createdAt,value
2023-05-05T04:42:39.291Z,5.30
2023-05-05T04:45:07.434Z,4.50
2023-05-05T04:47:39.125Z,4.20
2023-05-05T04:50:07.388Z,4.80
2023-05-05T04:52:34.625Z,4.10
2023-05-05T04:55:01.639Z,4.90
2023-05-05T04:57:29.746Z,4.70
2023-05-05T04:59:56.955Z,4.30
2023-05-05T05:02:24.155Z,4.00
2023-05-05T05:04:51.212Z,3.60
2023-05-05T05:07:18.164Z,4.30
2023-05-05T05:09:45.072Z,3.80
2023-05-05T05:12:12.137Z,4.00
2023-05-05T05:14:39.736Z,4.10
2023-05-05T05:17:06.908Z,3.80
2023-05-05T05:19:35.414Z,6.60
2023-05-05T05:22:02.592Z,4.30
2023-05-05T05:24:30.811Z,5.40
2023-05-05T05:26:58.749Z,4.70
2023-05-05T05:29:27.458Z,4.40
2023-05-05T05:31:57.091Z,4.80
2023-05-05T05:34:39.784Z,5.30
2023-05-05T05:37:17.658Z,4.80
2023-05-05T05:39:55.126Z,5.40
2023-05-05T05:42:22.828Z,5.80
2023-05-05T05:44:49.931Z,5.00
2023-05-05T05:47:17.914Z,5.00
2023-05-05T05:49:46.019Z,5.60
2023-05-05T05:52:13.188Z,6.00
2023-05-05T05:54:40.521Z,5.60
2023-05-05T05:57:08.064Z,5.30
2023-05-05T05:59:36.672Z,5.70
2023-05-05T06:02:04.632Z,5.90
2023-05-05T06:04:32.629Z,5.60
2023-05-05T06:07:01.213Z,5.50
2023-05-05T06:09:28.589Z,5.50
2023-05-05T06:11:55.794Z,5.80
2023-05-05T06:14:23.087Z,4.90
2023-05-05T06:16:53.306Z,5.20
2023-05-05T06:19:22.823Z,6.10
2023-05-05T06:21:50.924Z,5.40
2023-05-05T06:24:28.666Z,4.60
2023-05-05T06:27:04.456Z,5.40
2023-05-05T06:29:50.700Z,5.10
2023-05-05T06:32:23.605Z,5.40
2023-05-05T06:35:28.562Z,5.60
2023-05-05T06:38:26.921Z,5.50
2023-05-05T06:41:33.714Z,4.90
2023-05-05T06:44:01.107Z,4.80
2023-05-05T06:46:28.010Z,5.50
2023-05-05T06:48:56.336Z,5.00
2023-05-05T06:51:34.834Z,5.20
2023-05-05T06:54:02.880Z,4.80
2023-05-05T06:56:30.973Z,4.70
2023-05-05T06:58:57.925Z,4.40
2023-05-05T07:01:25.092Z,5.50
2023-05-05T07:03:52.449Z,4.80
2023-05-05T07:06:19.767Z,4.20
2023-05-05T07:08:49.721Z,4.30
2023-05-05T07:11:16.863Z,4.10
2023-05-05T07:13:46.527Z,4.40
2023-05-05T07:16:13.537Z,4.00
2023-05-05T07:18:40.630Z,3.30
2023-05-05T07:21:08.259Z,3.90
2023-05-05T07:23:37.977Z,3.20
2023-05-05T07:26:05.138Z,3.40
2023-05-05T07:28:32.109Z,3.60
2023-05-05T07:30:59.377Z,3.50
2023-05-05T07:33:26.400Z,2.80
2023-05-05T07:35:53.540Z,3.10
2023-05-05T07:38:20.647Z,2.80
2023-05-05T07:40:49.413Z,3.60
2023-05-05T07:43:17.517Z,3.00
2023-05-05T07:45:44.424Z,3.10
2023-05-05T07:48:11.808Z,3.10
2023-05-05T07:50:41.058Z,2.60
2023-05-05T07:53:14.478Z,2.60
2023-05-05T07:55:42.445Z,3.50
2023-05-05T07:58:11.274Z,3.00
2023-05-05T08:00:39.882Z,3.20
2023-05-05T08:03:13.111Z,2.80
2023-05-05T08:05:48.229Z,2.50
2023-05-05T08:08:16.517Z,2.40
2023-05-05T08:10:43.488Z,2.40
2023-05-05T08:13:16.512Z,2.60
2023-05-05T08:15:45.202Z,2.80
2023-05-05T08:18:12.227Z,3.00
2023-05-05T08:20:39.159Z,2.60
2023-05-05T08:23:06.394Z,2.50
2023-05-05T08:25:34.599Z,2.40
2023-05-05T08:28:01.551Z,2.20
2023-05-05T08:30:28.640Z,2.20
2023-05-05T08:32:55.642Z,1.80
2023-05-05T08:35:22.761Z,2.10
2023-05-05T08:37:50.758Z,2.70
2023-05-05T08:40:17.682Z,3.10
2023-05-05T08:42:55.559Z,2.70
2023-05-05T08:45:25.156Z,2.70
2023-05-05T08:47:52.419Z,2.50
2023-05-05T08:50:19.783Z,2.70
2023-05-05T08:52:48.093Z,1.80
2023-05-05T08:55:26.674Z,1.70
2023-05-05T08:57:57.823Z,2.10
2023-05-05T09:00:30.114Z,1.60
2023-05-05T09:02:58.400Z,1.60
2023-05-05T09:05:26.501Z,2.10
2023-05-05T09:07:56.165Z,1.90
2023-05-05T09:10:23.245Z,1.90
2023-05-05T09:12:52.153Z,1.70
2023-05-05T09:15:22.940Z,1.80
2023-05-05T09:17:57.066Z,1.70
2023-05-05T09:20:34.574Z,1.60
2023-05-05T09:23:20.543Z,1.60
2023-05-05T09:26:06.509Z,1.70
2023-05-05T09:28:33.619Z,1.90
2023-05-05T09:31:14.048Z,1.80
2023-05-05T09:33:41.294Z,2.20
2023-05-05T09:36:08.310Z,1.80
2023-05-05T09:38:37.060Z,2.30
2023-05-05T09:41:05.539Z,1.70
2023-05-05T09:43:59.343Z,2.30
2023-05-05T09:46:54.394Z,1.60
2023-05-05T09:49:26.995Z,1.40
2023-05-05T09:51:55.767Z,1.80
2023-05-05T09:54:41.513Z,1.60
2023-05-05T09:57:08.820Z,1.60
2023-05-05T09:59:42.296Z,1.60
2023-05-05T10:02:19.279Z,1.50
2023-05-05T10:04:47.957Z,1.30
2023-05-05T10:07:31.946Z,2.10
2023-05-05T10:10:05.345Z,1.80
2023-05-05T10:12:32.782Z,1.60
2023-05-05T10:15:01.281Z,1.50
2023-05-05T10:17:31.088Z,2.00
2023-05-05T10:19:59.886Z,1.40
2023-05-05T10:22:27.647Z,1.70
2023-05-05T10:24:58.052Z,1.70
2023-05-05T10:27:25.018Z,2.30
2023-05-05T10:30:04.991Z,1.90
2023-05-05T10:33:05.589Z,1.60
2023-05-05T10:35:36.866Z,1.40
2023-05-05T10:38:03.886Z,1.40
2023-05-05T10:40:30.859Z,2.20
2023-05-05T10:42:57.786Z,2.00
2023-05-05T10:45:26.826Z,1.40
2023-05-05T10:47:54.090Z,1.70
2023-05-05T10:50:24.059Z,1.80
2023-05-05T10:53:09.709Z,1.80
2023-05-05T10:55:51.958Z,2.40
2023-05-05T10:58:46.869Z,1.60
2023-05-05T11:01:14.706Z,1.90
2023-05-05T11:03:41.684Z,1.60
2023-05-05T11:06:09.102Z,1.90
2023-05-05T11:08:45.296Z,1.70
2023-05-05T11:11:12.837Z,2.20
2023-05-05T11:13:40.163Z,1.80
2023-05-05T11:16:43.008Z,2.10
2023-05-05T11:22:00.180Z,1.80
2023-05-05T11:24:29.056Z,2.20
2023-05-05T11:26:56.092Z,1.70
2023-05-05T11:29:22.975Z,1.80
2023-05-05T11:32:15.776Z,1.60
2023-05-05T11:37:18.846Z,1.60
2023-05-05T11:40:04.629Z,2.00
2023-05-05T11:42:31.666Z,1.90
2023-05-05T11:44:58.612Z,1.60
2023-05-05T11:47:26.711Z,1.50
2023-05-05T11:49:53.695Z,1.70
2023-05-05T11:52:20.661Z,2.00
2023-05-05T11:54:49.019Z,2.20
2023-05-05T11:57:17.740Z,2.00
